METAR Data
IDs: Format: Raw Decoded Include TAF

Data at: 0758 UTC 07 Dec 2021

KGNV 070753Z AUTO 23003KT 1SM BR OVC002 17/17 A3007 RMK AO2 SLP179 T01720172
KGNV 070750Z AUTO 24005KT 1SM BR OVC002 17/17 A3007 RMK AO2
KGNV 070740Z AUTO 24005KT 2SM BR OVC002 17/17 A3007 RMK AO2 T01720172
KGNV 070653Z AUTO 23003KT 1/2SM FG VV002 18/18 A3008 RMK AO2 SLP182 T01780178
KGNV 070612Z AUTO 20003KT 1/4SM FG VV002 18/18 A3007 RMK AO2 T01780178
KGNV 070558Z AUTO 00000KT 3/4SM BR OVC002 17/17 A3008 RMK AO2 T01720172
KGNV 070553Z AUTO 00000KT 2 1/2SM BR OVC003 18/17 A3008 RMK AO2 SLP185 T01780172 10194 20144 58013
KGNV 070514Z AUTO 00000KT 8SM BKN004 OVC055 16/16 A3009 RMK AO2 T01610156
KGNV 070510Z AUTO 00000KT 8SM SCT006 BKN055 16/16 A3010 RMK AO2 T01610156
KGNV 070453Z AUTO 00000KT 10SM OVC050 16/15 A3011 RMK AO2 SLP193 T01560150 402720100 TSNO
KGNV 070353Z AUTO 26003KT 10SM CLR 17/17 A3011 RMK AO2 SLP195 T01720167
KGNV 070253Z 29003KT 10SM CLR 18/17 A3012 RMK AO2 SLP197 T01780172 53008
KGNV 070153Z 22003KT 10SM CLR 17/16 A3010 RMK AO2 SLP192 T01720161
KGNV 070053Z 24003KT 10SM CLR 19/17 A3010 RMK AO2 SLP193 T01890167
KGNV 062353Z 25003KT 10SM CLR 19/16 A3010 RMK AO2 SLP192 T01890161 10267 20189 50008
KGNV 062253Z 26005KT 10SM CLR 21/17 A3010 RMK AO2 SLP191 T02060167
KGNV 062153Z 28005KT 10SM CLR 23/17 A3008 RMK AO2 SLP185 T02330167
KGNV 062053Z 27010KT 10SM FEW047 24/16 A3007 RMK AO2 SLP182 T02440161 55007
KGNV 061953Z 23011KT 10SM CLR 25/16 A3006 RMK AO2 SLP179 T02500156
KGNV 061853Z 23009KT 10SM FEW040 SCT049 26/16 A3008 RMK AO2 SLP184 T02560161
KGNV 061753Z 24010G17KT 10SM SCT034 27/17 A3009 RMK AO2 SLP188 T02670167 10272 20106 58026
KGNV 061653Z 21006KT 10SM CLR 25/18 A3013 RMK AO2 SLP201 T02500178
KGNV 061553Z 19006KT 10SM CLR 23/18 A3014 RMK AO2 SLP206 T02330178
KGNV 061453Z 18005KT 10SM CLR 21/18 A3017 RMK AO2 SLP215 T02110178 53006
KGNV 061353Z 13003KT 7SM CLR 17/16 A3016 RMK AO2 SLP213 T01670156
KGNV 061253Z 00000KT 6SM BR CLR 12/12 A3016 RMK AO2 SLP212 T01220117 $
KGNV 061153Z 00000KT 8SM CLR 10/10 A3015 RMK AO2 SLP210 T01000100 10122 20100 53005 $
KGNV 061111Z AUTO 00000KT 6SM BR SCT002 11/11 A3014 RMK AO2 T01060106 $
KGNV 061053Z AUTO 00000KT 8SM CLR 10/10 A3014 RMK AO2 SLP205 T01000100 $
KGNV 060953Z AUTO 00000KT 8SM CLR 11/11 A3013 RMK AO2 SLP201 T01110106 $
KGNV 060853Z AUTO 00000KT 8SM CLR 11/11 A3014 RMK AO2 SLP204 T01110111 55008 $
KGNV 060753Z AUTO 00000KT 8SM CLR 11/11 A3013 RMK AO2 SLP202 T01110106
KGNV 060729Z AUTO 00000KT 4SM BR CLR 11/11 A3014 RMK AO2 T01110111
KGNV 060721Z AUTO 00000KT 2SM BR CLR 11/11 A3014 RMK AO2 T01110111
KGNV 060653Z AUTO 00000KT 5SM BR CLR 11/11 A3015 RMK AO2 SLP207 T01110111
KGNV 060553Z AUTO 00000KT 8SM CLR 12/11 A3016 RMK AO2 SLP213 T01170111 10161 20117 58006
KGNV 060453Z AUTO 00000KT 7SM CLR 12/12 A3018 RMK AO2 SLP218 T01220117 402440083
KGNV 060353Z AUTO 00000KT 8SM CLR 13/12 A3019 RMK AO2 SLP222 T01280122
KGNV 060253Z 00000KT 9SM CLR 13/13 A3018 RMK AO2 SLP219 T01330128 53010
KGNV 060153Z 25003KT 7SM CLR 14/13 A3017 RMK AO2 SLP215 T01390133
KGNV 060053Z 00000KT 9SM CLR 16/14 A3016 RMK AO2 SLP213 T01560144
KGNV 052353Z 00000KT 10SM CLR 16/14 A3015 RMK AO2 SLP209 T01610144 10244 20161 53007
KGNV 052253Z 00000KT 10SM CLR 18/15 A3014 RMK AO2 SLP205 T01780150
KGNV 052153Z 00000KT 10SM CLR 23/14 A3013 RMK AO2 SLP202 T02280144
KGNV 052053Z 26003KT 10SM FEW042 24/13 A3013 RMK AO2 SLP201 T02440133 56013